createdAt,value
2019-06-08T00:00:13.179Z,90.20
2019-06-08T00:02:41.443Z,89.10
2019-06-08T00:05:30.872Z,88.80
2019-06-08T00:07:59.412Z,90.40
2019-06-08T00:10:27.979Z,89.30
2019-06-08T00:12:56.516Z,89.50
2019-06-08T00:15:25.080Z,88.70
2019-06-08T00:17:54.997Z,89.20
2019-06-08T00:20:23.792Z,88.90
2019-06-08T00:22:52.406Z,89.90
2019-06-08T00:25:22.200Z,90.10
2019-06-08T00:27:51.229Z,90.30
2019-06-08T00:30:20.189Z,89.80
2019-06-08T00:32:49.081Z,89.20
2019-06-08T00:35:18.669Z,88.10
2019-06-08T00:37:47.322Z,89.40
2019-06-08T00:40:16.840Z,90.30
2019-06-08T00:42:45.523Z,90.30
2019-06-08T00:45:15.289Z,88.90
2019-06-08T00:47:47.915Z,90.20
2019-06-08T00:50:15.193Z,87.10
2019-06-08T00:52:43.734Z,87.00
2019-06-08T00:55:12.671Z,88.20
2019-06-08T00:57:41.214Z,87.20
2019-06-08T01:00:11.533Z,87.50
2019-06-08T01:02:40.779Z,87.60
2019-06-08T01:05:09.558Z,86.00
2019-06-08T01:07:38.456Z,86.30
2019-06-08T01:10:07.961Z,87.00
2019-06-08T01:12:36.651Z,87.00
2019-06-08T01:15:09.212Z,87.80
2019-06-08T01:17:37.857Z,88.20
2019-06-08T01:20:08.434Z,89.30
2019-06-08T01:22:37.139Z,88.50
2019-06-08T01:25:06.515Z,88.40
2019-06-08T01:27:35.148Z,89.40
2019-06-08T01:30:07.094Z,88.90
2019-06-08T01:32:35.716Z,88.60
2019-06-08T01:35:04.834Z,88.60
2019-06-08T01:37:33.388Z,88.90
2019-06-08T01:40:02.028Z,86.60
2019-06-08T01:42:31.793Z,87.10
2019-06-08T01:45:00.536Z,87.80
2019-06-08T01:47:30.317Z,87.30
2019-06-08T01:49:58.974Z,85.90
2019-06-08T01:52:28.852Z,87.10
2019-06-08T01:54:57.514Z,86.50
2019-06-08T01:57:27.150Z,85.70
2019-06-08T01:59:55.821Z,86.40
2019-06-08T02:02:25.589Z,86.00
2019-06-08T02:04:54.418Z,85.80
2019-06-08T02:07:24.205Z,86.00
2019-06-08T02:09:52.847Z,85.80
2019-06-08T02:12:21.396Z,86.50
2019-06-08T02:14:49.927Z,86.90
2019-06-08T02:17:18.503Z,87.20
2019-06-08T02:19:47.131Z,87.60
2019-06-08T02:22:16.007Z,88.10
2019-06-08T02:24:44.902Z,87.80
2019-06-08T02:27:13.447Z,86.70
2019-06-08T02:29:41.997Z,86.40
2019-06-08T02:32:10.851Z,86.40
2019-06-08T02:34:40.609Z,85.60
2019-06-08T02:37:09.260Z,85.90
2019-06-08T02:39:39.595Z,86.50
2019-06-08T02:42:08.084Z,87.40
2019-06-08T02:44:36.724Z,84.70
2019-06-08T02:47:05.536Z,83.60
2019-06-08T02:49:35.419Z,82.60
2019-06-08T02:52:05.246Z,85.00
2019-06-08T02:54:35.513Z,82.40
2019-06-08T02:57:05.083Z,86.50
2019-06-08T02:59:38.553Z,81.80
2019-06-08T03:02:08.800Z,85.70
2019-06-08T03:04:38.818Z,83.40
2019-06-08T03:07:10.355Z,81.70
2019-06-08T03:10:00.776Z,82.30
2019-06-08T03:12:31.141Z,80.90
2019-06-08T03:15:03.679Z,83.00
2019-06-08T03:17:33.387Z,83.00
2019-06-08T03:20:02.339Z,80.80
2019-06-08T03:22:32.055Z,79.30
2019-06-08T03:25:02.123Z,80.30
2019-06-08T03:27:32.633Z,80.10
2019-06-08T03:30:15.131Z,80.10
2019-06-08T03:32:33.780Z,82.50
2019-06-08T03:35:01.852Z,79.70
2019-06-08T03:37:30.632Z,80.50
2019-06-08T03:39:59.170Z,79.30
2019-06-08T03:42:27.998Z,79.60
2019-06-08T03:44:56.844Z,79.80
2019-06-08T03:47:25.384Z,78.90
2019-06-08T03:49:57.315Z,78.00
2019-06-08T03:52:24.136Z,81.40
2019-06-08T03:54:52.964Z,79.60
2019-06-08T03:57:21.529Z,80.20
2019-06-08T03:59:50.335Z,81.20
2019-06-08T04:02:18.869Z,78.60
2019-06-08T04:04:47.446Z,80.20
2019-06-08T04:07:15.983Z,79.00
2019-06-08T04:09:45.919Z,78.80
2019-06-08T04:12:15.198Z,79.20
2019-06-08T04:14:44.556Z,77.70
2019-06-08T04:17:14.180Z,79.30
2019-06-08T04:20:02.829Z,81.20
2019-06-08T04:22:13.208Z,77.40
2019-06-08T04:24:44.565Z,77.70
2019-06-08T04:27:12.800Z,77.80
2019-06-08T04:29:41.747Z,78.90
2019-06-08T04:32:10.515Z,78.30
2019-06-08T04:34:40.866Z,78.50
2019-06-08T04:37:09.276Z,76.00
2019-06-08T04:39:38.377Z,76.60
2019-06-08T04:42:07.469Z,78.00
2019-06-08T04:44:36.291Z,76.80
2019-06-08T04:47:05.293Z,77.90
2019-06-08T04:49:33.832Z,77.60
2019-06-08T04:52:02.388Z,77.70
2019-06-08T04:54:31.001Z,77.20
2019-06-08T04:57:00.608Z,78.00
2019-06-08T04:59:29.199Z,78.00
2019-06-08T05:01:57.726Z,77.50
2019-06-08T05:04:26.359Z,76.70
2019-06-08T05:06:55.293Z,75.40
2019-06-08T05:09:23.831Z,74.70
2019-06-08T05:11:52.418Z,73.40
2019-06-08T05:14:23.700Z,71.30
2019-06-08T05:16:52.260Z,72.60
2019-06-08T05:19:20.828Z,71.30
2019-06-08T05:21:50.018Z,71.00
2019-06-08T05:24:18.703Z,69.70
2019-06-08T05:26:47.425Z,69.30
2019-06-08T05:29:16.006Z,67.30
2019-06-08T05:31:45.525Z,67.60
2019-06-08T05:34:16.368Z,67.30
2019-06-08T05:36:47.455Z,66.60
2019-06-08T05:39:17.997Z,65.80
2019-06-08T05:41:49.825Z,64.60
2019-06-08T05:44:21.703Z,61.30
2019-06-08T05:46:54.101Z,62.40
2019-06-08T05:49:24.120Z,61.80
2019-06-08T05:51:54.858Z,60.80
2019-06-08T05:54:25.253Z,62.40
2019-06-08T05:57:01.484Z,60.70
2019-06-08T05:59:32.820Z,60.70
2019-06-08T06:02:03.074Z,60.90
2019-06-08T06:05:17.893Z,56.80
2019-06-08T06:07:52.335Z,59.60
2019-06-08T06:10:28.429Z,58.40
2019-06-08T06:12:59.245Z,56.40
2019-06-08T06:15:34.376Z,56.40
2019-06-08T06:18:28.640Z,52.90
2019-06-08T06:21:10.301Z,51.80
2019-06-08T06:23:41.041Z,52.50
2019-06-08T06:26:36.978Z,52.10
2019-06-08T06:29:09.711Z,49.30
2019-06-08T06:31:43.589Z,51.80
2019-06-08T06:34:17.366Z,48.90
2019-06-08T06:37:08.745Z,50.30
2019-06-08T06:39:45.939Z,49.70
2019-06-08T06:42:17.583Z,45.50
2019-06-08T06:44:50.564Z,45.50
2019-06-08T06:47:21.430Z,41.70
2019-06-08T06:49:53.619Z,42.00
2019-06-08T06:55:53.337Z,39.70
2019-06-08T07:00:58.485Z,40.90
2019-06-08T07:03:27.062Z,38.90
2019-06-08T07:05:55.681Z,40.70
2019-06-08T07:09:13.078Z,39.30
2019-06-08T07:11:41.971Z,37.10
2019-06-08T07:17:39.606Z,39.10
2019-06-08T07:20:10.247Z,38.50
2019-06-08T07:22:39.070Z,38.60
2019-06-08T07:25:08.230Z,39.70
2019-06-08T07:27:37.126Z,39.70
2019-06-08T07:30:07.107Z,38.30
2019-06-08T07:32:35.978Z,40.60
2019-06-08T07:35:07.694Z,38.30
2019-06-08T07:37:36.675Z,40.70
2019-06-08T07:40:08.763Z,37.80
2019-06-08T07:42:37.678Z,36.30
2019-06-08T07:45:27.326Z,35.30
2019-06-08T07:47:56.168Z,35.10
2019-06-08T07:50:25.101Z,36.60
2019-06-08T07:52:54.653Z,39.20
2019-06-08T07:55:23.958Z,38.20
2019-06-08T07:57:53.968Z,38.00
2019-06-08T08:00:23.091Z,38.50
2019-06-08T08:02:52.127Z,38.80
2019-06-08T08:05:20.945Z,39.90
2019-06-08T08:07:50.234Z,38.80
2019-06-08T08:10:19.572Z,40.50
2019-06-08T08:12:49.215Z,38.10
2019-06-08T08:15:18.736Z,37.40
2019-06-08T08:17:49.005Z,37.10
2019-06-08T08:20:18.125Z,37.30
2019-06-08T08:22:56.535Z,38.20
2019-06-08T08:25:22.795Z,37.80
2019-06-08T08:27:51.984Z,39.50
2019-06-08T08:30:21.833Z,38.50
2019-06-08T08:36:20.998Z,39.30
2019-06-08T08:38:50.310Z,37.40
2019-06-08T08:41:40.687Z,34.80
2019-06-08T08:44:09.300Z,35.60
2019-06-08T08:46:48.786Z,34.40
2019-06-08T08:49:18.223Z,38.50
2019-06-08T09:07:48.352Z,36.40
2019-06-08T09:10:18.289Z,37.90
2019-06-08T09:16:17.689Z,38.70
2019-06-08T09:18:48.019Z,36.10
2019-06-08T09:21:22.030Z,35.80
2019-06-08T09:30:32.021Z,38.50
2019-06-08T09:33:02.348Z,39.30
2019-06-08T09:35:31.679Z,39.60
2019-06-08T09:38:03.203Z,38.40
2019-06-08T09:40:32.525Z,37.60
2019-06-08T09:43:38.760Z,39.00
2019-06-08T09:46:09.341Z,35.30
2019-06-08T09:48:38.554Z,37.20
2019-06-08T09:51:09.384Z,35.60
2019-06-08T09:53:41.418Z,36.40
2019-06-08T09:56:28.283Z,35.30
2019-06-08T09:59:01.323Z,36.80
2019-06-08T10:01:28.635Z,36.60
2019-06-08T10:04:03.779Z,38.40
2019-06-08T10:06:33.162Z,38.70
2019-06-08T10:09:02.833Z,34.30
2019-06-08T10:11:33.296Z,35.00
2019-06-08T10:14:12.557Z,35.90
2019-06-08T10:16:54.095Z,36.30
2019-06-08T10:19:22.984Z,36.70
2019-06-08T10:21:51.924Z,35.30
2019-06-08T10:24:21.357Z,36.50
2019-06-08T10:27:44.426Z,38.20
2019-06-08T10:30:13.376Z,36.40
2019-06-08T10:32:41.935Z,37.10
2019-06-08T10:35:10.915Z,38.60
2019-06-08T10:37:39.749Z,38.10
2019-06-08T10:40:10.005Z,36.80
2019-06-08T10:42:40.191Z,38.30
2019-06-08T10:45:13.138Z,39.40
2019-06-08T10:47:40.188Z,39.30
2019-06-08T10:50:15.167Z,41.10
2019-06-08T10:52:42.983Z,40.50
2019-06-08T10:55:12.468Z,38.70
2019-06-08T10:57:41.438Z,39.60
2019-06-08T11:03:17.238Z,40.20
2019-06-08T11:05:48.345Z,37.90
2019-06-08T11:08:18.688Z,38.70
2019-06-08T11:10:47.540Z,38.40
2019-06-08T11:13:18.722Z,42.40
2019-06-08T11:15:48.108Z,40.30
2019-06-08T11:18:18.564Z,39.10
2019-06-08T11:20:47.915Z,37.40
2019-06-08T11:23:18.727Z,35.00
2019-06-08T11:25:48.779Z,32.90
2019-06-08T11:28:18.551Z,35.00
2019-06-08T11:30:48.139Z,36.70
2019-06-08T11:33:16.948Z,32.90
2019-06-08T11:35:48.269Z,35.00
2019-06-08T11:38:17.448Z,34.50
2019-06-08T11:40:47.861Z,34.00
2019-06-08T11:43:18.300Z,37.40
2019-06-08T11:45:48.092Z,35.20
2019-06-08T11:48:18.292Z,36.70
2019-06-08T11:50:49.050Z,36.20
2019-06-08T11:53:18.274Z,34.50
2019-06-08T11:55:50.662Z,34.50
2019-06-08T11:58:22.158Z,34.30
2019-06-08T12:00:54.110Z,34.30
2019-06-08T12:03:22.994Z,33.30
2019-06-08T12:05:51.893Z,37.70
2019-06-08T12:08:20.895Z,36.90
2019-06-08T12:10:49.870Z,35.40
2019-06-08T12:13:18.587Z,35.70
2019-06-08T12:15:49.001Z,37.10
2019-06-08T12:18:18.256Z,37.80
2019-06-08T12:20:48.826Z,36.00
2019-06-08T12:23:17.740Z,36.50
2019-06-08T12:25:46.379Z,33.60
2019-06-08T12:28:14.921Z,36.50
2019-06-08T12:30:43.561Z,36.90
2019-06-08T12:33:13.608Z,37.00
2019-06-08T12:35:42.423Z,35.20
2019-06-08T12:38:11.514Z,34.40
2019-06-08T12:40:41.670Z,33.80
2019-06-08T12:43:12.690Z,34.10
2019-06-08T12:45:40.600Z,34.80
2019-06-08T12:48:15.741Z,33.60
2019-06-08T12:50:39.579Z,34.90
2019-06-08T12:53:14.385Z,37.40
2019-06-08T12:55:38.450Z,35.80
2019-06-08T12:58:09.648Z,36.90
2019-06-08T13:00:38.364Z,33.00
2019-06-08T13:03:08.598Z,35.10
2019-06-08T13:05:38.036Z,33.40
2019-06-08T13:08:08.819Z,35.20
2019-06-08T13:10:38.195Z,37.30
2019-06-08T13:13:08.457Z,36.70
2019-06-08T13:15:38.471Z,35.80
2019-06-08T13:18:08.941Z,35.00
2019-06-08T13:20:38.880Z,36.30
2019-06-08T13:23:08.666Z,37.40
2019-06-08T13:25:43.465Z,39.20
2019-06-08T13:28:13.151Z,35.40
2019-06-08T13:30:39.085Z,36.50
2019-06-08T13:33:09.904Z,36.00
2019-06-08T13:35:39.498Z,37.30
2019-06-08T13:38:08.832Z,38.30
2019-06-08T13:40:40.227Z,34.70
2019-06-08T13:43:08.254Z,35.70
2019-06-08T13:45:39.417Z,33.90
2019-06-08T13:48:08.958Z,36.10
2019-06-08T13:50:37.784Z,35.70
2019-06-08T13:53:10.558Z,36.00
2019-06-08T13:55:51.693Z,33.60
2019-06-08T13:58:07.370Z,34.10
2019-06-08T14:00:38.428Z,34.70
2019-06-08T14:03:08.848Z,35.70
2019-06-08T14:05:38.922Z,36.20
2019-06-08T14:08:10.621Z,35.40
2019-06-08T14:10:42.267Z,35.20
2019-06-08T14:13:11.237Z,32.60
2019-06-08T14:15:40.051Z,33.20
2019-06-08T14:18:09.089Z,34.40
2019-06-08T14:20:38.522Z,31.10
2019-06-08T14:23:09.200Z,33.80
2019-06-08T14:25:47.927Z,33.60
2019-06-08T14:28:08.552Z,30.90
2019-06-08T14:30:37.764Z,29.50
2019-06-08T14:33:08.311Z,31.10
2019-06-08T14:35:37.104Z,29.60
2019-06-08T14:38:05.735Z,31.30
2019-06-08T14:40:37.563Z,30.60
2019-06-08T14:43:10.509Z,31.00
2019-06-08T14:45:37.797Z,32.10
2019-06-08T14:48:06.779Z,31.80
2019-06-08T14:50:40.736Z,31.80
2019-06-08T14:53:08.634Z,31.50
2019-06-08T14:55:38.654Z,30.20
2019-06-08T14:58:08.328Z,31.20
2019-06-08T15:00:38.029Z,30.70
2019-06-08T15:03:07.673Z,32.80
2019-06-08T15:05:36.739Z,30.20
2019-06-08T15:08:08.170Z,31.40
2019-06-08T15:10:35.751Z,29.60
2019-06-08T15:13:04.423Z,29.20
2019-06-08T15:15:33.019Z,30.60
2019-06-08T15:18:04.714Z,30.00
2019-06-08T15:20:31.805Z,31.00
2019-06-08T15:23:00.443Z,32.30
2019-06-08T15:25:32.561Z,31.40
2019-06-08T15:28:01.273Z,30.00
2019-06-08T15:30:31.487Z,33.30
2019-06-08T15:33:00.786Z,31.30
2019-06-08T15:35:29.600Z,31.30
2019-06-08T15:37:58.614Z,32.40
2019-06-08T15:40:27.850Z,31.20
2019-06-08T15:42:58.609Z,32.00
2019-06-08T15:45:29.385Z,32.20
2019-06-08T15:48:02.364Z,30.40
2019-06-08T15:50:31.257Z,31.90
2019-06-08T15:53:00.213Z,33.60
2019-06-08T15:55:31.351Z,34.00
2019-06-08T15:57:59.283Z,34.00
2019-06-08T16:00:30.025Z,33.80
2019-06-08T16:02:58.680Z,32.30
2019-06-08T16:05:27.790Z,33.00
2019-06-08T16:07:56.655Z,31.90
2019-06-08T16:10:26.337Z,33.10
2019-06-08T16:12:55.109Z,32.80
2019-06-08T16:15:24.848Z,34.10
2019-06-08T16:17:54.067Z,32.00
2019-06-08T16:20:22.733Z,32.40
2019-06-08T16:22:51.445Z,33.00
2019-06-08T16:25:19.991Z,33.80
2019-06-08T16:27:48.900Z,34.60
2019-06-08T16:30:17.734Z,33.10
2019-06-08T16:32:46.678Z,34.90
2019-06-08T16:35:15.583Z,33.60
2019-06-08T16:37:46.963Z,33.70
2019-06-08T16:40:15.792Z,34.50
2019-06-08T16:42:44.350Z,33.00
2019-06-08T16:45:13.720Z,34.40
2019-06-08T16:47:43.886Z,33.50
2019-06-08T16:50:24.067Z,35.20
2019-06-08T16:52:46.100Z,32.20
2019-06-08T16:55:14.706Z,32.00
2019-06-08T16:57:43.246Z,31.70
2019-06-08T17:02:42.427Z,32.90
2019-06-08T17:05:11.111Z,32.80
2019-06-08T17:07:39.830Z,32.90
2019-06-08T17:10:08.622Z,33.90
2019-06-08T17:12:37.224Z,33.10
2019-06-08T17:15:06.684Z,32.20
2019-06-08T17:17:38.566Z,32.40
2019-06-08T17:20:08.625Z,31.40
2019-06-08T17:22:38.660Z,32.60
2019-06-08T17:25:27.018Z,31.50
2019-06-08T17:27:55.584Z,32.40
2019-06-08T17:30:24.142Z,33.00
2019-06-08T17:32:52.962Z,34.50
2019-06-08T17:35:22.149Z,34.00
2019-06-08T17:37:50.736Z,35.00
2019-06-08T17:40:19.888Z,35.60
2019-06-08T17:42:57.448Z,34.70
2019-06-08T17:45:26.067Z,34.20
2019-06-08T17:47:54.754Z,34.00
2019-06-08T17:50:23.487Z,34.20
2019-06-08T17:52:52.169Z,35.00
2019-06-08T17:55:20.847Z,33.10
2019-06-08T17:57:53.456Z,34.00
2019-06-08T18:00:21.964Z,35.10
2019-06-08T18:02:51.010Z,35.60
2019-06-08T18:05:19.726Z,34.70
2019-06-08T18:07:49.162Z,34.20
2019-06-08T18:10:18.134Z,34.40
2019-06-08T18:12:49.166Z,34.30
2019-06-08T18:15:17.563Z,35.40
2019-06-08T18:17:48.211Z,35.10
2019-06-08T18:20:18.195Z,35.00
2019-06-08T18:22:49.399Z,35.70
2019-06-08T18:25:19.761Z,36.30
2019-06-08T18:28:05.501Z,36.30
2019-06-08T18:30:20.806Z,37.20
2019-06-08T18:32:49.442Z,37.70
2019-06-08T18:35:18.460Z,37.70
2019-06-08T18:37:48.770Z,38.80
2019-06-08T18:40:18.168Z,38.20
2019-06-08T18:42:48.809Z,39.60
2019-06-08T18:45:18.916Z,38.80
2019-06-08T18:47:48.539Z,39.90
2019-06-08T18:50:17.617Z,40.50
2019-06-08T18:52:47.326Z,40.10
2019-06-08T18:55:18.234Z,41.10
2019-06-08T18:57:49.354Z,39.40
2019-06-08T19:00:21.365Z,39.80
2019-06-08T19:02:54.389Z,40.70
2019-06-08T19:05:21.179Z,40.00
2019-06-08T19:07:52.254Z,40.70
2019-06-08T19:13:21.836Z,41.00
2019-06-08T19:15:53.032Z,42.00
2019-06-08T19:18:20.811Z,43.40
2019-06-08T19:20:52.657Z,42.90
2019-06-08T19:23:21.432Z,44.30
2019-06-08T19:25:49.922Z,43.90
2019-06-08T19:28:32.708Z,43.90
2019-06-08T19:30:51.182Z,43.50
2019-06-08T19:33:19.246Z,43.60
2019-06-08T19:35:49.979Z,43.90
2019-06-08T19:38:18.251Z,43.10
2019-06-08T19:40:46.790Z,42.60
2019-06-08T19:43:15.449Z,42.40
2019-06-08T19:45:45.473Z,43.60
2019-06-08T19:48:17.353Z,42.70
2019-06-08T19:50:47.295Z,42.00
2019-06-08T19:53:18.153Z,43.90
2019-06-08T19:55:52.050Z,43.70
2019-06-08T19:58:18.183Z,44.10
2019-06-08T20:00:52.358Z,44.30
2019-06-08T20:03:17.799Z,44.50
2019-06-08T20:05:50.156Z,43.20
2019-06-08T20:08:17.590Z,43.80
2019-06-08T20:10:48.011Z,44.40
2019-06-08T20:13:17.111Z,44.40
2019-06-08T20:15:50.657Z,45.10
2019-06-08T20:18:17.233Z,45.80
2019-06-08T20:20:49.006Z,46.40
2019-06-08T20:23:18.110Z,46.70
2019-06-08T20:26:08.328Z,47.40
2019-06-08T20:28:37.256Z,48.20
2019-06-08T20:31:07.504Z,48.40
2019-06-08T20:33:39.030Z,48.80
2019-06-08T20:36:08.318Z,49.60
2019-06-08T20:38:41.997Z,49.50
2019-06-08T20:41:07.993Z,49.60
2019-06-08T20:43:38.085Z,49.10
2019-06-08T20:46:08.163Z,50.10
2019-06-08T20:48:37.770Z,50.60
2019-06-08T20:51:07.811Z,50.60
2019-06-08T20:53:38.767Z,51.20
2019-06-08T20:56:08.132Z,52.30
2019-06-08T20:58:37.199Z,53.00
2019-06-08T21:01:07.383Z,53.00
2019-06-08T21:03:36.131Z,52.70
2019-06-08T21:06:04.967Z,53.60
2019-06-08T21:08:33.730Z,53.80
2019-06-08T21:11:02.743Z,54.50
2019-06-08T21:13:31.292Z,55.90
2019-06-08T21:16:00.846Z,53.90
2019-06-08T21:18:29.773Z,53.30
2019-06-08T21:20:58.332Z,52.40
2019-06-08T21:23:28.130Z,52.20
2019-06-08T21:25:59.976Z,50.50
2019-06-08T21:28:27.955Z,50.70
2019-06-08T21:31:01.649Z,50.00
2019-06-08T21:33:27.410Z,49.80
2019-06-08T21:36:03.485Z,50.40
2019-06-08T21:38:28.191Z,51.50
2019-06-08T21:41:00.888Z,50.40
2019-06-08T21:43:28.125Z,50.80
2019-06-08T21:45:59.473Z,51.00
2019-06-08T21:48:27.530Z,52.00
2019-06-08T21:51:01.058Z,52.40
2019-06-08T21:53:27.543Z,52.20
2019-06-08T21:55:56.330Z,52.00
2019-06-08T21:58:24.922Z,52.00
2019-06-08T22:00:54.739Z,53.30
2019-06-08T22:03:23.618Z,53.00
2019-06-08T22:06:11.533Z,53.70
2019-06-08T22:08:40.075Z,54.80
2019-06-08T22:11:09.224Z,56.30
2019-06-08T22:13:37.919Z,55.60
2019-06-08T22:16:08.201Z,56.20
2019-06-08T22:18:38.034Z,56.00
2019-06-08T22:21:18.218Z,56.30
2019-06-08T22:23:47.609Z,56.80
2019-06-08T22:26:17.786Z,57.60
2019-06-08T22:28:48.182Z,57.20
2019-06-08T22:31:17.708Z,58.00
2019-06-08T22:33:48.376Z,58.30
2019-06-08T22:36:16.995Z,58.50
2019-06-08T22:38:47.606Z,58.60
2019-06-08T22:41:17.373Z,58.80
2019-06-08T22:43:48.096Z,59.40
2019-06-08T22:46:17.781Z,58.90
2019-06-08T22:48:47.824Z,59.10
2019-06-08T22:51:18.764Z,59.30
2019-06-08T22:53:47.881Z,59.40
2019-06-08T22:56:18.349Z,59.80
2019-06-08T22:58:47.993Z,60.20
2019-06-08T23:01:18.468Z,60.10
2019-06-08T23:03:47.577Z,60.60
2019-06-08T23:06:17.653Z,60.20
2019-06-08T23:08:48.041Z,61.30
2019-06-08T23:11:17.983Z,60.80
2019-06-08T23:13:47.320Z,61.10
2019-06-08T23:16:18.033Z,61.50
2019-06-08T23:18:47.863Z,62.20
2019-06-08T23:21:18.038Z,62.40
2019-06-08T23:23:47.832Z,62.80
2019-06-08T23:26:18.376Z,62.80
2019-06-08T23:28:47.278Z,63.60
2019-06-08T23:31:22.442Z,64.10
2019-06-08T23:33:48.218Z,64.60
2019-06-08T23:36:46.540Z,65.20
2019-06-08T23:38:48.172Z,64.90
2019-06-08T23:41:17.766Z,65.70
2019-06-08T23:43:48.079Z,66.10
2019-06-08T23:46:18.113Z,64.70
2019-06-08T23:48:48.383Z,65.20
2019-06-08T23:51:18.059Z,65.40
2019-06-08T23:53:47.767Z,65.60
2019-06-08T23:56:18.301Z,65.30
2019-06-08T23:58:48.157Z,65.80
